createdAt,value
2018-07-23T00:02:00.754Z,20.13
2018-07-23T00:04:29.261Z,18.77
2018-07-23T00:06:57.727Z,19.90
2018-07-23T00:09:26.905Z,20.17
2018-07-23T00:11:55.359Z,20.87
2018-07-23T00:14:23.847Z,20.80
2018-07-23T00:16:52.298Z,17.30
2018-07-23T00:19:20.772Z,18.03
2018-07-23T00:21:49.280Z,18.07
2018-07-23T00:24:17.988Z,22.53
2018-07-23T00:26:46.489Z,19.83
2018-07-23T00:29:14.975Z,17.57
2018-07-23T00:31:43.202Z,15.40
2018-07-23T00:34:11.733Z,17.70
2018-07-23T00:36:40.235Z,15.20
2018-07-23T00:39:09.198Z,14.80
2018-07-23T00:41:38.252Z,18.00
2018-07-23T00:44:07.286Z,18.03
2018-07-23T00:46:35.777Z,19.07
2018-07-23T00:49:04.257Z,17.90
2018-07-23T00:51:32.745Z,16.90
2018-07-23T00:54:00.921Z,16.03
2018-07-23T00:56:29.382Z,20.43
2018-07-23T00:58:57.874Z,15.50
2018-07-23T01:01:26.397Z,12.93
2018-07-23T01:03:54.841Z,15.17
2018-07-23T01:06:23.149Z,17.03
2018-07-23T01:08:58.243Z,15.10
2018-07-23T01:11:26.738Z,17.03
2018-07-23T01:13:55.218Z,16.27
2018-07-23T01:16:23.776Z,15.80
2018-07-23T01:18:52.281Z,16.40
2018-07-23T01:21:20.608Z,15.93
2018-07-23T01:23:49.142Z,15.20
2018-07-23T01:26:17.463Z,15.73
2018-07-23T01:28:46.001Z,15.63
2018-07-23T01:31:14.472Z,16.13
2018-07-23T01:33:43.003Z,16.77
2018-07-23T01:36:11.441Z,15.03
2018-07-23T01:38:39.946Z,18.43
2018-07-23T01:41:08.406Z,15.00
2018-07-23T01:43:36.913Z,16.03
2018-07-23T01:46:05.413Z,16.63
2018-07-23T01:48:33.953Z,15.03
2018-07-23T01:51:02.406Z,14.93
2018-07-23T01:53:30.902Z,17.43
2018-07-23T01:55:59.327Z,18.47
2018-07-23T01:58:27.915Z,15.67
2018-07-23T02:00:56.459Z,18.93
2018-07-23T02:03:24.977Z,16.93
2018-07-23T02:05:53.421Z,15.40
2018-07-23T02:08:21.971Z,19.13
2018-07-23T02:10:50.456Z,20.00
2018-07-23T02:13:19.134Z,17.03
2018-07-23T02:15:47.598Z,17.63
2018-07-23T02:18:16.085Z,20.67
2018-07-23T02:20:44.588Z,21.73
2018-07-23T02:23:13.065Z,20.27
2018-07-23T02:25:41.706Z,15.50
2018-07-23T02:28:09.854Z,22.13
2018-07-23T02:30:38.313Z,20.33
2018-07-23T02:33:06.989Z,19.20
2018-07-23T02:35:35.867Z,21.93
2018-07-23T02:38:04.398Z,19.43
2018-07-23T02:40:32.859Z,21.87
2018-07-23T02:43:01.371Z,17.53
2018-07-23T02:45:29.842Z,18.80
2018-07-23T02:47:58.550Z,23.10
2018-07-23T02:50:27.019Z,25.53
2018-07-23T02:52:55.521Z,19.93
2018-07-23T02:55:24.013Z,22.57
2018-07-23T02:57:52.986Z,18.00
2018-07-23T03:00:21.445Z,22.10
2018-07-23T03:02:49.933Z,21.30
2018-07-23T03:05:18.440Z,17.97
2018-07-23T03:07:46.964Z,18.43
2018-07-23T03:10:15.491Z,20.20
2018-07-23T03:12:43.646Z,19.20
2018-07-23T03:15:12.217Z,18.47
2018-07-23T03:17:40.688Z,19.63
2018-07-23T03:20:09.259Z,26.90
2018-07-23T03:22:39.106Z,20.57
2018-07-23T03:25:07.809Z,20.33
2018-07-23T03:27:36.277Z,22.83
2018-07-23T03:30:05.242Z,20.90
2018-07-23T03:32:33.851Z,20.83
2018-07-23T03:35:02.369Z,22.90
2018-07-23T03:37:30.861Z,31.73
2018-07-23T03:39:59.719Z,21.00
2018-07-23T03:42:28.153Z,27.50
2018-07-23T03:44:56.710Z,22.17
2018-07-23T03:47:25.221Z,21.00
2018-07-23T03:49:54.164Z,22.33
2018-07-23T03:52:22.667Z,22.30
2018-07-23T03:54:51.117Z,23.40
2018-07-23T03:57:19.916Z,24.50
2018-07-23T03:59:48.432Z,22.47
2018-07-23T04:02:16.973Z,22.53
2018-07-23T04:04:45.607Z,22.97
2018-07-23T04:07:14.109Z,23.97
2018-07-23T04:09:43.058Z,23.60
2018-07-23T04:12:11.533Z,23.40
2018-07-23T04:14:40.050Z,22.33
2018-07-23T04:17:10.002Z,20.97
2018-07-23T04:19:38.594Z,22.27
2018-07-23T04:22:07.370Z,20.17
2018-07-23T04:24:35.804Z,24.00
2018-07-23T04:27:04.301Z,21.40
2018-07-23T04:29:33.386Z,22.50
2018-07-23T04:32:01.918Z,27.73
2018-07-23T04:34:30.423Z,23.23
2018-07-23T04:36:58.947Z,27.43
2018-07-23T04:39:27.405Z,25.40
2018-07-23T04:41:55.914Z,25.77
2018-07-23T04:44:24.419Z,26.23
2018-07-23T04:46:52.595Z,25.83
2018-07-23T04:49:21.083Z,27.43
2018-07-23T04:51:49.646Z,24.00
2018-07-23T04:54:18.125Z,34.63
2018-07-23T04:56:46.705Z,25.43
2018-07-23T04:59:15.188Z,32.70
2018-07-23T05:01:43.778Z,23.87
2018-07-23T05:04:12.305Z,29.73
2018-07-23T05:06:40.824Z,29.87
2018-07-23T05:09:11.401Z,24.83
2018-07-23T05:11:40.741Z,29.90
2018-07-23T05:14:09.981Z,24.97
2018-07-23T05:16:38.490Z,25.67
2018-07-23T05:19:07.535Z,28.30
2018-07-23T05:21:36.052Z,23.33
2018-07-23T05:24:04.341Z,24.40
2018-07-23T05:26:33.222Z,30.03
2018-07-23T05:29:01.705Z,24.03
2018-07-23T05:31:30.298Z,26.47
2018-07-23T05:33:58.829Z,24.20
2018-07-23T05:36:27.395Z,21.23
2018-07-23T05:38:55.881Z,26.93
2018-07-23T05:41:24.325Z,19.50
2018-07-23T05:43:53.034Z,20.30
2018-07-23T05:46:21.574Z,19.20
2018-07-23T05:48:50.378Z,20.33
2018-07-23T05:51:18.846Z,19.33
2018-07-23T05:53:47.057Z,19.10
2018-07-23T05:56:15.541Z,22.97
2018-07-23T05:58:44.117Z,25.53
2018-07-23T06:01:12.650Z,24.43
2018-07-23T06:03:41.153Z,17.33
2018-07-23T06:06:09.468Z,21.83
2018-07-23T06:08:37.942Z,22.13
2018-07-23T06:11:06.606Z,24.47
2018-07-23T06:13:35.210Z,21.50
2018-07-23T06:16:03.942Z,19.83
2018-07-23T06:18:32.867Z,23.30
2018-07-23T06:21:01.344Z,18.50
2018-07-23T06:23:29.825Z,16.47
2018-07-23T06:25:59.974Z,19.27
2018-07-23T06:28:28.615Z,20.77
2018-07-23T06:30:57.741Z,15.73
2018-07-23T06:33:26.242Z,17.70
2018-07-23T06:35:54.950Z,13.50
2018-07-23T06:38:23.391Z,14.10
2018-07-23T06:40:51.949Z,13.67
2018-07-23T06:43:20.462Z,12.60
2018-07-23T06:45:49.051Z,14.20
2018-07-23T06:48:17.515Z,11.10
2018-07-23T06:50:46.053Z,12.30
2018-07-23T06:53:14.564Z,10.47
2018-07-23T06:55:43.086Z,14.67
2018-07-23T06:58:11.585Z,12.10
2018-07-23T07:00:40.176Z,13.23
2018-07-23T07:03:08.849Z,8.97
2018-07-23T07:05:37.346Z,14.43
2018-07-23T07:08:06.367Z,12.33
2018-07-23T07:10:34.902Z,10.70
2018-07-23T07:13:03.606Z,10.50
2018-07-23T07:15:32.189Z,9.33
2018-07-23T07:18:00.837Z,10.27
2018-07-23T07:20:29.458Z,10.13
2018-07-23T07:22:57.937Z,8.80
2018-07-23T07:25:26.430Z,12.97
2018-07-23T07:27:54.931Z,10.07
2018-07-23T07:30:23.384Z,11.70
2018-07-23T07:32:51.886Z,8.73
2018-07-23T07:35:20.349Z,8.73
2018-07-23T07:37:49.482Z,13.10
2018-07-23T07:40:18.026Z,6.87
2018-07-23T07:42:46.466Z,7.70
2018-07-23T07:45:14.985Z,8.77
2018-07-23T07:47:43.736Z,16.83
2018-07-23T07:50:12.285Z,53.90
2018-07-23T07:52:40.794Z,8.40
2018-07-23T07:55:09.346Z,38.63
2018-07-23T07:57:38.278Z,12.43
2018-07-23T08:00:07.061Z,11.37
2018-07-23T08:02:35.501Z,9.50
2018-07-23T08:05:04.087Z,41.33
2018-07-23T08:07:32.370Z,8.67
2018-07-23T08:10:00.917Z,42.80
2018-07-23T08:12:29.437Z,13.83
2018-07-23T08:14:58.129Z,10.87
2018-07-23T08:17:27.656Z,11.13
2018-07-23T08:19:56.904Z,7.73
2018-07-23T08:22:25.573Z,16.10
2018-07-23T08:24:54.467Z,8.10
2018-07-23T08:27:22.981Z,8.07
2018-07-23T08:29:51.165Z,12.63
2018-07-23T08:32:19.783Z,7.90
2018-07-23T08:34:48.233Z,6.40
2018-07-23T08:37:16.491Z,24.37
2018-07-23T08:39:44.907Z,7.43
2018-07-23T08:42:13.596Z,6.70
2018-07-23T08:44:43.093Z,6.60
2018-07-23T08:47:12.625Z,5.70
2018-07-23T08:49:41.129Z,11.60
2018-07-23T08:52:10.543Z,6.83
2018-07-23T08:54:39.075Z,10.53
2018-07-23T08:57:07.617Z,9.83
2018-07-23T08:59:35.809Z,8.37
2018-07-23T09:02:04.352Z,19.13
2018-07-23T09:04:33.864Z,7.77
2018-07-23T09:07:02.353Z,7.83
2018-07-23T09:09:30.894Z,9.63
2018-07-23T09:11:59.706Z,14.93
2018-07-23T09:14:28.199Z,9.70
2018-07-23T09:16:56.737Z,14.53
2018-07-23T09:19:25.255Z,13.90
2018-07-23T09:21:54.689Z,9.33
2018-07-23T09:24:23.370Z,6.20
2018-07-23T09:26:51.868Z,12.90
2018-07-23T09:29:20.484Z,8.60
2018-07-23T09:31:49.901Z,11.33
2018-07-23T09:34:19.010Z,11.00
2018-07-23T09:36:47.534Z,13.07
2018-07-23T09:39:16.077Z,8.53
2018-07-23T09:41:44.642Z,6.60
2018-07-23T09:44:13.159Z,8.73
2018-07-23T09:46:42.195Z,6.47
2018-07-23T09:49:10.739Z,7.97
2018-07-23T09:51:39.881Z,7.83
2018-07-23T09:54:08.362Z,8.23
2018-07-23T09:56:36.889Z,11.50
2018-07-23T09:59:05.796Z,6.83
2018-07-23T10:01:34.326Z,11.70
2018-07-23T10:04:02.835Z,8.97
2018-07-23T10:06:31.385Z,7.80
2018-07-23T10:08:59.871Z,8.57
2018-07-23T10:11:28.420Z,10.77
2018-07-23T10:13:57.870Z,9.67
2018-07-23T10:16:26.407Z,9.50
2018-07-23T10:18:54.938Z,7.60
2018-07-23T10:21:24.190Z,7.87
2018-07-23T10:23:52.670Z,6.00
2018-07-23T10:26:21.389Z,6.50
2018-07-23T10:28:49.861Z,8.90
2018-07-23T10:31:18.483Z,5.13
2018-07-23T10:33:46.987Z,15.53
2018-07-23T10:36:15.708Z,5.97
2018-07-23T10:38:44.165Z,7.27
2018-07-23T10:41:12.723Z,6.50
2018-07-23T10:43:41.512Z,8.40
2018-07-23T10:46:10.074Z,6.30
2018-07-23T10:48:38.531Z,9.53
2018-07-23T10:51:07.043Z,6.93
2018-07-23T10:53:36.189Z,9.37
2018-07-23T10:56:05.101Z,8.00
2018-07-23T10:58:33.595Z,7.93
2018-07-23T11:01:02.569Z,12.37
2018-07-23T11:03:31.574Z,10.00
2018-07-23T11:06:00.602Z,7.70
2018-07-23T11:08:29.352Z,12.23
2018-07-23T11:10:58.442Z,11.63
2018-07-23T11:13:28.033Z,6.80
2018-07-23T11:15:57.282Z,9.47
2018-07-23T11:18:25.734Z,10.33
2018-07-23T11:20:54.765Z,9.03
2018-07-23T11:23:23.234Z,6.47
2018-07-23T11:25:52.021Z,8.63
2018-07-23T11:28:20.556Z,6.57
2018-07-23T11:30:49.181Z,9.33
2018-07-23T11:33:17.669Z,10.90
2018-07-23T11:35:46.162Z,9.73
2018-07-23T11:38:14.820Z,7.43
2018-07-23T11:40:43.294Z,7.57
2018-07-23T11:43:12.481Z,6.90
2018-07-23T11:45:40.981Z,7.77
2018-07-23T11:48:09.814Z,9.93
2018-07-23T11:50:39.556Z,6.63
2018-07-23T11:53:08.964Z,6.90
2018-07-23T11:55:37.463Z,7.73
2018-07-23T11:58:06.423Z,5.93
2018-07-23T12:00:34.922Z,7.03
2018-07-23T12:03:03.435Z,8.83
2018-07-23T12:05:31.934Z,9.80
2018-07-23T12:08:00.677Z,8.07
2018-07-23T12:10:29.178Z,10.30
2018-07-23T12:12:58.381Z,15.40
2018-07-23T12:15:27.357Z,7.63
2018-07-23T12:17:55.969Z,7.57
2018-07-23T12:20:24.442Z,9.10
2018-07-23T12:22:52.963Z,8.23
2018-07-23T12:25:21.648Z,8.00
2018-07-23T12:27:50.150Z,5.83
2018-07-23T12:30:18.656Z,7.40
2018-07-23T12:32:47.279Z,7.50
2018-07-23T12:35:15.745Z,13.73
2018-07-23T12:37:44.197Z,7.60
2018-07-23T12:40:13.050Z,9.07
2018-07-23T12:42:41.726Z,10.47
2018-07-23T12:45:10.204Z,6.60
2018-07-23T12:47:38.666Z,10.07
2018-07-23T12:50:07.250Z,7.37
2018-07-23T12:52:36.733Z,6.37
2018-07-23T12:55:05.255Z,7.70
2018-07-23T12:57:33.834Z,7.03
2018-07-23T13:00:02.384Z,11.60
2018-07-23T13:02:31.104Z,7.40
2018-07-23T13:04:59.778Z,8.87
2018-07-23T13:07:28.250Z,6.97
2018-07-23T13:09:57.119Z,12.60
2018-07-23T13:12:25.626Z,9.60
2018-07-23T13:14:54.510Z,6.03
2018-07-23T13:17:23.015Z,6.43
2018-07-23T13:19:51.641Z,9.77
2018-07-23T13:22:20.232Z,6.40
2018-07-23T13:24:49.534Z,6.70
2018-07-23T13:27:17.990Z,6.50
2018-07-23T13:29:47.066Z,9.57
2018-07-23T13:32:15.655Z,6.60
2018-07-23T13:34:44.134Z,6.20
2018-07-23T13:37:13.166Z,5.90
2018-07-23T13:39:41.853Z,6.00
2018-07-23T13:42:10.312Z,7.07
2018-07-23T13:44:38.891Z,11.43
2018-07-23T13:47:07.391Z,9.10
2018-07-23T13:49:36.618Z,7.40
2018-07-23T13:52:07.113Z,8.40
2018-07-23T13:54:35.659Z,8.90
2018-07-23T13:57:04.165Z,4.87
2018-07-23T13:59:32.648Z,8.80
2018-07-23T14:02:01.315Z,5.80
2018-07-23T14:04:29.842Z,8.70
2018-07-23T14:06:58.330Z,5.87
2018-07-23T14:09:26.837Z,5.50
2018-07-23T14:11:55.392Z,7.50
2018-07-23T14:14:24.115Z,4.57
2018-07-23T14:16:52.599Z,7.60
2018-07-23T14:19:21.127Z,5.70
2018-07-23T14:21:50.297Z,5.43
2018-07-23T14:24:18.919Z,5.67
2018-07-23T14:26:47.974Z,4.47
2018-07-23T14:29:18.686Z,6.50
2018-07-23T14:31:47.940Z,12.37
2018-07-23T14:34:16.478Z,5.80
2018-07-23T14:36:45.127Z,6.30
2018-07-23T14:39:14.954Z,5.43
2018-07-23T14:41:44.463Z,4.70
2018-07-23T14:44:13.199Z,5.23
2018-07-23T14:46:41.718Z,6.80
2018-07-23T14:49:10.260Z,7.00
2018-07-23T14:51:38.937Z,8.70
2018-07-23T14:54:08.678Z,7.07
2018-07-23T14:56:37.207Z,6.00
2018-07-23T14:59:06.298Z,5.30
2018-07-23T15:01:34.812Z,4.10
2018-07-23T15:04:03.386Z,6.20
2018-07-23T15:06:31.930Z,5.97
2018-07-23T15:09:00.975Z,9.00
2018-07-23T15:11:29.700Z,7.00
2018-07-23T15:13:58.461Z,4.70
2018-07-23T15:16:26.997Z,5.43
2018-07-23T15:18:55.448Z,4.50
2018-07-23T15:21:24.772Z,5.43
2018-07-23T15:23:53.237Z,5.20
2018-07-23T15:26:21.815Z,7.90
2018-07-23T15:28:50.491Z,5.70
2018-07-23T15:31:19.042Z,8.30
2018-07-23T15:33:47.618Z,5.40
2018-07-23T15:36:16.193Z,4.67
2018-07-23T15:38:45.302Z,6.23
2018-07-23T15:41:14.292Z,5.70
2018-07-23T15:43:43.182Z,5.20
2018-07-23T15:46:11.789Z,5.60
2018-07-23T15:48:40.243Z,7.47
2018-07-23T15:51:08.826Z,8.00
2018-07-23T15:53:37.017Z,6.50
2018-07-23T15:56:05.713Z,5.70
2018-07-23T15:58:35.067Z,11.33
2018-07-23T16:01:03.586Z,4.70
2018-07-23T16:03:32.091Z,11.73
2018-07-23T16:06:00.791Z,5.13
2018-07-23T16:08:29.272Z,9.97
2018-07-23T16:10:57.901Z,5.33
2018-07-23T16:13:26.439Z,5.40
2018-07-23T16:15:54.930Z,3.73
2018-07-23T16:18:23.493Z,4.60
2018-07-23T16:20:52.376Z,4.70
2018-07-23T16:23:20.980Z,3.40
2018-07-23T16:25:49.486Z,4.30
2018-07-23T16:28:18.022Z,3.53
2018-07-23T16:30:46.499Z,5.90
2018-07-23T16:33:15.007Z,3.50
2018-07-23T16:35:43.602Z,4.43
2018-07-23T16:38:12.158Z,5.03
2018-07-23T16:40:40.634Z,6.10
2018-07-23T16:43:09.203Z,3.93
2018-07-23T16:45:37.741Z,4.17
2018-07-23T16:48:06.520Z,6.13
2018-07-23T16:50:35.131Z,4.80
2018-07-23T16:53:03.684Z,4.27
2018-07-23T16:55:32.564Z,6.00
2018-07-23T16:58:01.328Z,7.60
2018-07-23T17:00:29.929Z,7.97
2018-07-23T17:02:58.461Z,4.00
2018-07-23T17:05:27.350Z,4.93
2018-07-23T17:07:55.914Z,6.77
2018-07-23T17:10:24.405Z,4.10
2018-07-23T17:12:52.934Z,5.20
2018-07-23T17:15:21.947Z,5.80
2018-07-23T17:17:50.490Z,5.83
2018-07-23T17:20:19.330Z,6.43
2018-07-23T17:22:47.856Z,9.97
2018-07-23T17:25:16.617Z,4.50
2018-07-23T17:27:45.157Z,4.13
2018-07-23T17:30:13.650Z,5.77
2018-07-23T17:32:42.540Z,5.20
2018-07-23T17:35:11.378Z,8.57
2018-07-23T17:37:39.901Z,4.43
2018-07-23T17:40:08.774Z,5.83
2018-07-23T17:42:37.627Z,11.20
2018-07-23T17:45:06.379Z,9.33
2018-07-23T17:47:34.878Z,6.87
2018-07-23T17:50:03.870Z,7.20
2018-07-23T17:52:32.411Z,9.87
2018-07-23T17:55:01.298Z,5.73
2018-07-23T17:57:30.021Z,4.23
2018-07-23T17:59:58.509Z,6.93
2018-07-23T18:02:27.068Z,6.47
2018-07-23T18:04:57.147Z,8.03
2018-07-23T18:07:25.684Z,5.10
2018-07-23T18:09:54.171Z,4.43
2018-07-23T18:12:23.453Z,17.93
2018-07-23T18:14:52.791Z,7.60
2018-07-23T18:17:21.876Z,5.90
2018-07-23T18:19:50.694Z,11.30
2018-07-23T18:22:20.472Z,7.37
2018-07-23T18:24:48.951Z,7.73
2018-07-23T18:27:17.522Z,6.90
2018-07-23T18:29:46.049Z,9.90
2018-07-23T18:32:14.889Z,6.30
2018-07-23T18:34:43.400Z,5.53
2018-07-23T18:37:12.042Z,10.00
2018-07-23T18:39:41.530Z,6.53
2018-07-23T18:42:10.125Z,11.43
2018-07-23T18:44:38.646Z,5.13
2018-07-23T18:47:07.967Z,4.37
2018-07-23T18:49:48.870Z,5.17
2018-07-23T18:52:18.229Z,6.40
2018-07-23T18:54:48.088Z,3.87
2018-07-23T18:57:17.157Z,8.30
2018-07-23T18:59:45.724Z,4.83
2018-07-23T19:02:16.370Z,11.90
2018-07-23T19:04:45.221Z,5.60
2018-07-23T19:07:13.751Z,4.00
2018-07-23T19:09:42.685Z,8.13
2018-07-23T19:12:12.013Z,5.87
2018-07-23T19:14:41.834Z,4.30
2018-07-23T19:17:11.682Z,8.00
2018-07-23T19:19:41.006Z,4.27
2018-07-23T19:22:09.992Z,5.63
2018-07-23T19:24:38.574Z,5.30
2018-07-23T19:27:07.686Z,8.20
2018-07-23T19:29:36.294Z,5.43
2018-07-23T19:32:06.556Z,7.77
2018-07-23T19:34:35.133Z,8.30
2018-07-23T19:37:03.770Z,6.00
2018-07-23T19:39:32.487Z,10.27
2018-07-23T19:42:01.310Z,5.90
2018-07-23T19:44:29.859Z,15.80
2018-07-23T19:46:58.509Z,24.77
2018-07-23T19:49:27.965Z,5.90
2018-07-23T19:51:56.504Z,7.83
2018-07-23T19:54:25.172Z,5.13
2018-07-23T19:56:53.702Z,14.37
2018-07-23T19:59:22.349Z,10.60
2018-07-23T20:01:50.829Z,16.93
2018-07-23T20:04:20.055Z,14.70
2018-07-23T20:06:48.618Z,8.23
2018-07-23T20:09:17.321Z,8.53
2018-07-23T20:11:45.860Z,9.27
2018-07-23T20:14:14.849Z,10.73
2018-07-23T20:16:43.359Z,5.17
2018-07-23T20:19:11.921Z,10.43
2018-07-23T20:21:40.478Z,13.43
2018-07-23T20:24:10.461Z,6.43
2018-07-23T20:26:39.021Z,7.93
2018-07-23T20:29:07.909Z,5.00
2018-07-23T20:31:36.522Z,11.30
2018-07-23T20:34:05.718Z,7.53
2018-07-23T20:36:36.097Z,5.20
2018-07-23T20:39:06.962Z,13.90
2018-07-23T20:41:35.593Z,4.97
2018-07-23T20:44:04.151Z,6.17
2018-07-23T20:46:33.722Z,9.63
2018-07-23T20:49:02.320Z,7.83
2018-07-23T20:51:31.589Z,11.70
2018-07-23T20:54:00.257Z,4.80
2018-07-23T20:56:28.838Z,8.03
2018-07-23T20:58:58.109Z,9.37
2018-07-23T21:01:26.574Z,9.20
2018-07-23T21:03:55.120Z,7.13
2018-07-23T21:06:23.742Z,9.67
2018-07-23T21:08:52.290Z,6.17
2018-07-23T21:11:20.795Z,5.17
2018-07-23T21:13:49.369Z,10.20
2018-07-23T21:16:17.835Z,7.17
2018-07-23T21:18:47.708Z,7.10
2018-07-23T21:21:16.490Z,7.70
2018-07-23T21:23:45.277Z,4.70
2018-07-23T21:26:13.922Z,5.50
2018-07-23T21:28:42.427Z,12.83
2018-07-23T21:31:10.951Z,6.40
2018-07-23T21:33:39.841Z,8.17
2018-07-23T21:36:09.221Z,19.13
2018-07-23T21:38:38.269Z,9.73
2018-07-23T21:41:06.860Z,6.70
2018-07-23T21:43:35.338Z,5.77
2018-07-23T21:46:04.668Z,8.43
2018-07-23T21:48:33.235Z,6.10
2018-07-23T21:51:01.927Z,8.30
2018-07-23T21:53:30.938Z,14.00
2018-07-23T21:55:59.542Z,5.07
2018-07-23T21:58:28.046Z,4.30
2018-07-23T22:00:56.875Z,7.03
2018-07-23T22:03:25.690Z,6.93
2018-07-23T22:05:54.248Z,5.97
2018-07-23T22:08:22.716Z,6.97
2018-07-23T22:10:51.822Z,7.10
2018-07-23T22:13:20.342Z,10.50
2018-07-23T22:15:48.877Z,6.20
2018-07-23T22:18:17.318Z,13.80
2018-07-23T22:20:45.847Z,5.10
2018-07-23T22:23:14.309Z,7.40
2018-07-23T22:25:42.914Z,6.53
2018-07-23T22:28:11.372Z,4.80
2018-07-23T22:30:39.941Z,13.90
2018-07-23T22:33:08.370Z,6.10
2018-07-23T22:35:36.858Z,8.93
2018-07-23T22:38:05.457Z,5.90
2018-07-23T22:40:34.920Z,8.27
2018-07-23T22:43:04.131Z,4.87
2018-07-23T22:45:32.650Z,7.83
2018-07-23T22:48:01.151Z,6.70
2018-07-23T22:50:29.339Z,8.37
2018-07-23T22:52:57.854Z,6.20
2018-07-23T22:55:26.309Z,9.30
2018-07-23T22:57:54.792Z,5.63
2018-07-23T23:00:23.402Z,11.17
2018-07-23T23:02:51.953Z,12.73
2018-07-23T23:05:20.422Z,9.60
2018-07-23T23:07:48.747Z,10.77
2018-07-23T23:10:17.248Z,5.23
2018-07-23T23:12:45.838Z,7.50
2018-07-23T23:15:14.859Z,7.33
2018-07-23T23:17:43.393Z,8.13
2018-07-23T23:20:11.973Z,7.10
2018-07-23T23:22:40.475Z,6.43
2018-07-23T23:25:10.112Z,5.50
2018-07-23T23:27:38.474Z,8.10
2018-07-23T23:30:07.592Z,6.07
2018-07-23T23:32:36.101Z,8.27
2018-07-23T23:35:04.611Z,8.70
2018-07-23T23:37:33.101Z,8.00
2018-07-23T23:40:01.590Z,5.13
2018-07-23T23:42:30.154Z,7.60
2018-07-23T23:44:58.621Z,5.83
2018-07-23T23:47:27.101Z,5.33
2018-07-23T23:49:55.554Z,5.90
2018-07-23T23:52:24.028Z,6.93
2018-07-23T23:54:52.526Z,7.90
2018-07-23T23:57:20.966Z,10.40
2018-07-23T23:59:49.541Z,11.57
